sensor_id;sensor_type;location;lat;lon;timestamp;pressure;altitude;pressure_sealevel;temperature
57468;BMP280;43311;51.196;7.518;2023-08-07T00:01:03;96424.28;;;11.48
57468;BMP280;43311;51.196;7.518;2023-08-07T00:03:29;96403.66;;;11.34
57468;BMP280;43311;51.196;7.518;2023-08-07T00:05:54;96442.00;;;11.60
57468;BMP280;43311;51.196;7.518;2023-08-07T00:08:20;96407.25;;;11.40
57468;BMP280;43311;51.196;7.518;2023-08-07T00:10:46;96434.53;;;11.58
57468;BMP280;43311;51.196;7.518;2023-08-07T00:13:12;96428.78;;;11.48
57468;BMP280;43311;51.196;7.518;2023-08-07T00:15:38;96437.47;;;11.60
57468;BMP280;43311;51.196;7.518;2023-08-07T00:18:04;96432.56;;;11.62
57468;BMP280;43311;51.196;7.518;2023-08-07T00:20:29;96429.28;;;11.58
57468;BMP280;43311;51.196;7.518;2023-08-07T00:22:54;96433.47;;;11.56
57468;BMP280;43311;51.196;7.518;2023-08-07T00:25:20;96435.28;;;11.59
57468;BMP280;43311;51.196;7.518;2023-08-07T00:27:45;96409.69;;;11.47
57468;BMP280;43311;51.196;7.518;2023-08-07T00:30:12;96431.59;;;11.57
57468;BMP280;43311;51.196;7.518;2023-08-07T00:32:37;96435.47;;;11.52
57468;BMP280;43311;51.196;7.518;2023-08-07T00:35:04;96427.63;;;11.49
57468;BMP280;43311;51.196;7.518;2023-08-07T00:37:30;96434.38;;;11.50
57468;BMP280;43311;51.196;7.518;2023-08-07T00:39:55;96422.56;;;11.42
57468;BMP280;43311;51.196;7.518;2023-08-07T00:42:21;96424.28;;;11.48
57468;BMP280;43311;51.196;7.518;2023-08-07T00:44:46;96412.88;;;11.55
57468;BMP280;43311;51.196;7.518;2023-08-07T00:47:12;96445.88;;;11.56
57468;BMP280;43311;51.196;7.518;2023-08-07T00:49:37;96445.69;;;11.62
57468;BMP280;43311;51.196;7.518;2023-08-07T00:52:03;96436.63;;;11.63
57468;BMP280;43311;51.196;7.518;2023-08-07T00:54:29;96433.81;;;11.58
57468;BMP280;43311;51.196;7.518;2023-08-07T00:57:03;96420.13;;;11.51
57468;BMP280;43311;51.196;7.518;2023-08-07T00:59:31;96433.72;;;11.61
57468;BMP280;43311;51.196;7.518;2023-08-07T01:01:58;96435.28;;;11.59
57468;BMP280;43311;51.196;7.518;2023-08-07T01:04:23;96430.84;;;11.56
57468;BMP280;43311;51.196;7.518;2023-08-07T01:06:48;96418.22;;;11.51
57468;BMP280;43311;51.196;7.518;2023-08-07T01:09:14;96424.38;;;11.45
57468;BMP280;43311;51.196;7.518;2023-08-07T01:11:44;96435.38;;;11.56
57468;BMP280;43311;51.196;7.518;2023-08-07T01:14:25;96432.56;;;11.47
57468;BMP280;43311;51.196;7.518;2023-08-07T01:17:14;96451.44;;;11.58
57468;BMP280;43311;51.196;7.518;2023-08-07T01:19:41;96431.91;;;11.43
57468;BMP280;43311;51.196;7.518;2023-08-07T01:22:10;96454.72;;;11.61
57468;BMP280;43311;51.196;7.518;2023-08-07T01:24:42;96413.00;;;11.35
57468;BMP280;43311;51.196;7.518;2023-08-07T01:29:59;96435.53;;;11.49
57468;BMP280;43311;51.196;7.518;2023-08-07T01:35:47;96453.00;;;11.55
57468;BMP280;43311;51.196;7.518;2023-08-07T01:38:13;96436.63;;;11.35
57468;BMP280;43311;51.196;7.518;2023-08-07T01:40:40;96459.41;;;11.54
57468;BMP280;43311;51.196;7.518;2023-08-07T01:43:05;96439.88;;;11.39
57468;BMP280;43311;51.196;7.518;2023-08-07T01:45:31;96451.13;;;11.40
57468;BMP280;43311;51.196;7.518;2023-08-07T01:47:56;96467.38;;;11.51
57468;BMP280;43311;51.196;7.518;2023-08-07T01:50:23;96469.59;;;11.52
57468;BMP280;43311;51.196;7.518;2023-08-07T01:52:48;96467.03;;;11.49
57468;BMP280;43311;51.196;7.518;2023-08-07T01:55:15;96440.81;;;11.33
57468;BMP280;43311;51.196;7.518;2023-08-07T01:57:48;96449.16;;;11.44
57468;BMP280;43311;51.196;7.518;2023-08-07T02:00:14;96459.16;;;11.49
57468;BMP280;43311;51.196;7.518;2023-08-07T02:02:42;96446.19;;;11.42
57468;BMP280;43311;51.196;7.518;2023-08-07T02:05:09;96444.50;;;11.35
57468;BMP280;43311;51.196;7.518;2023-08-07T02:07:35;96464.91;;;11.44
57468;BMP280;43311;51.196;7.518;2023-08-07T02:10:02;96452.28;;;11.39
57468;BMP280;43311;51.196;7.518;2023-08-07T02:12:27;96464.34;;;11.36
57468;BMP280;43311;51.196;7.518;2023-08-07T02:14:55;96460.16;;;11.39
57468;BMP280;43311;51.196;7.518;2023-08-07T02:17:21;96478.03;;;11.44
57468;BMP280;43311;51.196;7.518;2023-08-07T02:19:47;96477.53;;;11.49
57468;BMP280;43311;51.196;7.518;2023-08-07T02:22:12;96466.56;;;11.38
57468;BMP280;43311;51.196;7.518;2023-08-07T02:24:38;96464.25;;;11.40
57468;BMP280;43311;51.196;7.518;2023-08-07T02:27:05;96465.00;;;11.40
57468;BMP280;43311;51.196;7.518;2023-08-07T02:29:31;96482.78;;;11.49
57468;BMP280;43311;51.196;7.518;2023-08-07T02:32:00;96479.50;;;11.45
57468;BMP280;43311;51.196;7.518;2023-08-07T02:34:25;96491.56;;;11.42
57468;BMP280;43311;51.196;7.518;2023-08-07T02:36:50;96466.09;;;11.27
57468;BMP280;43311;51.196;7.518;2023-08-07T02:39:16;96484.59;;;11.36
57468;BMP280;43311;51.196;7.518;2023-08-07T02:41:42;96464.84;;;11.31
57468;BMP280;43311;51.196;7.518;2023-08-07T02:44:07;96477.69;;;11.42
57468;BMP280;43311;51.196;7.518;2023-08-07T02:46:32;96480.66;;;11.44
57468;BMP280;43311;51.196;7.518;2023-08-07T02:49:01;96470.25;;;11.40
57468;BMP280;43311;51.196;7.518;2023-08-07T02:51:26;96482.31;;;11.38
57468;BMP280;43311;51.196;7.518;2023-08-07T02:53:52;96476.41;;;11.34
57468;BMP280;43311;51.196;7.518;2023-08-07T02:56:17;96476.63;;;11.39
57468;BMP280;43311;51.196;7.518;2023-08-07T02:58:43;96484.44;;;11.43
57468;BMP280;43311;51.196;7.518;2023-08-07T03:01:08;96483.44;;;11.37
57468;BMP280;43311;51.196;7.518;2023-08-07T03:03:34;96475.56;;;11.37
57468;BMP280;43311;51.196;7.518;2023-08-07T03:06:00;96458.63;;;11.25
57468;BMP280;43311;51.196;7.518;2023-08-07T03:08:26;96480.75;;;11.40
57468;BMP280;43311;51.196;7.518;2023-08-07T03:10:53;96453.03;;;11.23
57468;BMP280;43311;51.196;7.518;2023-08-07T03:13:19;96474.09;;;11.36
57468;BMP280;43311;51.196;7.518;2023-08-07T03:15:44;96470.78;;;11.19
57468;BMP280;43311;51.196;7.518;2023-08-07T03:18:10;96475.94;;;11.23
57468;BMP280;43311;51.196;7.518;2023-08-07T03:20:38;96469.84;;;11.26
57468;BMP280;43311;51.196;7.518;2023-08-07T03:23:04;96488.41;;;11.35
57468;BMP280;43311;51.196;7.518;2023-08-07T03:25:29;96481.25;;;11.35
57468;BMP280;43311;51.196;7.518;2023-08-07T03:27:55;96491.66;;;11.39
57468;BMP280;43311;51.196;7.518;2023-08-07T03:30:21;96489.19;;;11.32
57468;BMP280;43311;51.196;7.518;2023-08-07T03:32:47;96463.88;;;11.25
57468;BMP280;43311;51.196;7.518;2023-08-07T03:35:13;96478.69;;;11.32
57468;BMP280;43311;51.196;7.518;2023-08-07T03:37:40;96495.94;;;11.33
57468;BMP280;43311;51.196;7.518;2023-08-07T03:40:06;96477.31;;;11.27
57468;BMP280;43311;51.196;7.518;2023-08-07T03:42:32;96481.19;;;11.23
57468;BMP280;43311;51.196;7.518;2023-08-07T03:44:58;96493.25;;;11.20
57468;BMP280;43311;51.196;7.518;2023-08-07T03:47:23;96484.31;;;11.18
57468;BMP280;43311;51.196;7.518;2023-08-07T03:49:50;96497.06;;;11.32
57468;BMP280;43311;51.196;7.518;2023-08-07T03:52:17;96501.19;;;11.33
57468;BMP280;43311;51.196;7.518;2023-08-07T03:54:43;96496.94;;;11.23
57468;BMP280;43311;51.196;7.518;2023-08-07T03:57:09;96506.44;;;11.33
57468;BMP280;43311;51.196;7.518;2023-08-07T03:59:37;96504.16;;;11.35
57468;BMP280;43311;51.196;7.518;2023-08-07T04:02:02;96467.16;;;11.13
57468;BMP280;43311;51.196;7.518;2023-08-07T04:04:28;96498.66;;;11.29
57468;BMP280;43311;51.196;7.518;2023-08-07T04:06:54;96510.28;;;11.28
57468;BMP280;43311;51.196;7.518;2023-08-07T04:09:20;96493.47;;;11.26
57468;BMP280;43311;51.196;7.518;2023-08-07T04:11:45;96507.25;;;11.30
57468;BMP280;43311;51.196;7.518;2023-08-07T04:14:10;96502.75;;;11.30
57468;BMP280;43311;51.196;7.518;2023-08-07T04:16:36;96509.06;;;11.33
57468;BMP280;43311;51.196;7.518;2023-08-07T04:19:02;96500.47;;;11.32
57468;BMP280;43311;51.196;7.518;2023-08-07T04:21:29;96485.03;;;11.18
57468;BMP280;43311;51.196;7.518;2023-08-07T04:23:55;96494.13;;;11.14
57468;BMP280;43311;51.196;7.518;2023-08-07T04:26:20;96486.59;;;11.16
57468;BMP280;43311;51.196;7.518;2023-08-07T04:28:46;96504.47;;;11.21
57468;BMP280;43311;51.196;7.518;2023-08-07T04:31:12;96517.66;;;11.33
57468;BMP280;43311;51.196;7.518;2023-08-07T04:33:38;96510.44;;;11.21
57468;BMP280;43311;51.196;7.518;2023-08-07T04:36:04;96536.53;;;11.28
57468;BMP280;43311;51.196;7.518;2023-08-07T04:38:29;96510.78;;;11.23
57468;BMP280;43311;51.196;7.518;2023-08-07T04:40:54;96509.38;;;11.19
57468;BMP280;43311;51.196;7.518;2023-08-07T04:43:20;96511.19;;;11.22
57468;BMP280;43311;51.196;7.518;2023-08-07T04:45:46;96497.03;;;11.19
57468;BMP280;43311;51.196;7.518;2023-08-07T04:48:12;96503.81;;;11.17
57468;BMP280;43311;51.196;7.518;2023-08-07T04:50:38;96514.97;;;11.21
57468;BMP280;43311;51.196;7.518;2023-08-07T04:53:04;96476.28;;;10.93
57468;BMP280;43311;51.196;7.518;2023-08-07T04:55:30;96493.50;;;11.10
57468;BMP280;43311;51.196;7.518;2023-08-07T04:57:57;96518.09;;;11.16
57468;BMP280;43311;51.196;7.518;2023-08-07T05:00:23;96514.31;;;11.17
57468;BMP280;43311;51.196;7.518;2023-08-07T05:02:48;96520.88;;;11.25
57468;BMP280;43311;51.196;7.518;2023-08-07T05:05:15;96521.84;;;11.15
57468;BMP280;43311;51.196;7.518;2023-08-07T05:07:41;96540.91;;;11.35
57468;BMP280;43311;51.196;7.518;2023-08-07T05:10:09;96529.66;;;11.18
57468;BMP280;43311;51.196;7.518;2023-08-07T05:12:35;96531.44;;;11.21
57468;BMP280;43311;51.196;7.518;2023-08-07T05:15:01;96534.97;;;11.31
57468;BMP280;43311;51.196;7.518;2023-08-07T05:17:26;96544.66;;;11.34
57468;BMP280;43311;51.196;7.518;2023-08-07T05:19:52;96536.13;;;11.30
57468;BMP280;43311;51.196;7.518;2023-08-07T05:22:17;96542.53;;;11.29
57468;BMP280;43311;51.196;7.518;2023-08-07T05:24:43;96533.75;;;11.19
57468;BMP280;43311;51.196;7.518;2023-08-07T05:27:13;96548.75;;;11.19
57468;BMP280;43311;51.196;7.518;2023-08-07T05:29:38;96532.19;;;11.06
57468;BMP280;43311;51.196;7.518;2023-08-07T05:32:22;96560.06;;;11.32
57468;BMP280;43311;51.196;7.518;2023-08-07T05:34:47;96538.75;;;11.14
57468;BMP280;43311;51.196;7.518;2023-08-07T05:37:13;96541.56;;;11.23
57468;BMP280;43311;51.196;7.518;2023-08-07T05:39:38;96556.66;;;11.35
57468;BMP280;43311;51.196;7.518;2023-08-07T05:42:04;96546.03;;;11.22
57468;BMP280;43311;51.196;7.518;2023-08-07T05:44:30;96543.03;;;11.24
57468;BMP280;43311;51.196;7.518;2023-08-07T05:46:55;96541.28;;;11.17
57468;BMP280;43311;51.196;7.518;2023-08-07T05:49:21;96537.75;;;11.08
57468;BMP280;43311;51.196;7.518;2023-08-07T05:51:46;96544.19;;;11.23
57468;BMP280;43311;51.196;7.518;2023-08-07T05:54:11;96555.41;;;11.23
57468;BMP280;43311;51.196;7.518;2023-08-07T05:56:37;96544.66;;;11.18
57468;BMP280;43311;51.196;7.518;2023-08-07T05:59:03;96544.19;;;11.23
57468;BMP280;43311;51.196;7.518;2023-08-07T06:01:29;96526.47;;;11.11
57468;BMP280;43311;51.196;7.518;2023-08-07T06:03:59;96556.66;;;11.35
57468;BMP280;43311;51.196;7.518;2023-08-07T06:06:26;96536.88;;;11.14
57468;BMP280;43311;51.196;7.518;2023-08-07T06:08:56;96547.44;;;11.27
57468;BMP280;43311;51.196;7.518;2023-08-07T06:11:21;96559.72;;;11.30
57468;BMP280;43311;51.196;7.518;2023-08-07T06:13:48;96535.31;;;11.17
57468;BMP280;43311;51.196;7.518;2023-08-07T06:16:14;96547.09;;;11.25
57468;BMP280;43311;51.196;7.518;2023-08-07T06:18:39;96546.94;;;11.32
57468;BMP280;43311;51.196;7.518;2023-08-07T06:21:04;96571.47;;;11.41
57468;BMP280;43311;51.196;7.518;2023-08-07T06:23:33;96549.66;;;11.28
57468;BMP280;43311;51.196;7.518;2023-08-07T06:25:58;96548.59;;;11.26
57468;BMP280;43311;51.196;7.518;2023-08-07T06:28:24;96547.75;;;11.13
57468;BMP280;43311;51.196;7.518;2023-08-07T06:30:49;96563.69;;;11.22
57468;BMP280;43311;51.196;7.518;2023-08-07T06:33:15;96555.41;;;11.23
57468;BMP280;43311;51.196;7.518;2023-08-07T06:35:40;96573.69;;;11.27
57468;BMP280;43311;51.196;7.518;2023-08-07T06:38:08;96568.59;;;11.36
57468;BMP280;43311;51.196;7.518;2023-08-07T06:40:34;96579.69;;;11.43
57468;BMP280;43311;51.196;7.518;2023-08-07T06:43:00;96570.75;;;11.41
57468;BMP280;43311;51.196;7.518;2023-08-07T06:45:25;96559.00;;;11.29
57468;BMP280;43311;51.196;7.518;2023-08-07T06:47:51;96562.22;;;11.21
57468;BMP280;43311;51.196;7.518;2023-08-07T06:50:17;96568.78;;;11.29
57468;BMP280;43311;51.196;7.518;2023-08-07T06:52:42;96583.88;;;11.41
57468;BMP280;43311;51.196;7.518;2023-08-07T06:55:08;96578.28;;;11.39
57468;BMP280;43311;51.196;7.518;2023-08-07T06:57:34;96595.22;;;11.54
57468;BMP280;43311;51.196;7.518;2023-08-07T06:59:59;96583.38;;;11.46
57468;BMP280;43311;51.196;7.518;2023-08-07T07:02:25;96595.53;;;11.56
57468;BMP280;43311;51.196;7.518;2023-08-07T07:04:50;96589.44;;;11.43
57468;BMP280;43311;51.196;7.518;2023-08-07T07:07:16;96602.41;;;11.50
57468;BMP280;43311;51.196;7.518;2023-08-07T07:09:41;96593.22;;;11.42
57468;BMP280;43311;51.196;7.518;2023-08-07T07:12:07;96606.53;;;11.51
57468;BMP280;43311;51.196;7.518;2023-08-07T07:14:33;96616.03;;;11.60
57468;BMP280;43311;51.196;7.518;2023-08-07T07:16:59;96611.44;;;11.64
57468;BMP280;43311;51.196;7.518;2023-08-07T07:19:25;96611.22;;;11.59
57468;BMP280;43311;51.196;7.518;2023-08-07T07:21:51;96599.78;;;11.50
57468;BMP280;43311;51.196;7.518;2023-08-07T07:24:17;96598.06;;;11.43
57468;BMP280;43311;51.196;7.518;2023-08-07T07:26:42;96617.53;;;11.61
57468;BMP280;43311;51.196;7.518;2023-08-07T07:29:08;96627.03;;;11.71
57468;BMP280;43311;51.196;7.518;2023-08-07T07:31:33;96627.19;;;11.64
57468;BMP280;43311;51.196;7.518;2023-08-07T07:33:58;96621.94;;;11.64
57468;BMP280;43311;51.196;7.518;2023-08-07T07:36:24;96633.13;;;11.68
57468;BMP280;43311;51.196;7.518;2023-08-07T07:38:49;96628.53;;;11.72
57468;BMP280;43311;51.196;7.518;2023-08-07T07:41:15;96615.13;;;11.67
57468;BMP280;43311;51.196;7.518;2023-08-07T07:43:41;96635.97;;;11.74
57468;BMP280;43311;51.196;7.518;2023-08-07T07:46:07;96637.53;;;11.71
57468;BMP280;43311;51.196;7.518;2023-08-07T07:48:32;96627.03;;;11.71
57468;BMP280;43311;51.196;7.518;2023-08-07T07:51:02;96634.28;;;11.67
57468;BMP280;43311;51.196;7.518;2023-08-07T07:53:28;96630.31;;;11.59
57468;BMP280;43311;51.196;7.518;2023-08-07T07:55:53;96634.94;;;11.56
57468;BMP280;43311;51.196;7.518;2023-08-07T07:58:20;96662.16;;;11.77
57468;BMP280;43311;51.196;7.518;2023-08-07T08:00:45;96642.47;;;11.69
57468;BMP280;43311;51.196;7.518;2023-08-07T08:03:11;96653.31;;;11.71
57468;BMP280;43311;51.196;7.518;2023-08-07T08:05:37;96652.31;;;11.81
57468;BMP280;43311;51.196;7.518;2023-08-07T08:08:03;96667.56;;;11.86
57468;BMP280;43311;51.196;7.518;2023-08-07T08:10:29;96671.84;;;11.80
57468;BMP280;43311;51.196;7.518;2023-08-07T08:13:21;96681.63;;;11.96
57468;BMP280;43311;51.196;7.518;2023-08-07T08:15:47;96683.25;;;12.06
57468;BMP280;43311;51.196;7.518;2023-08-07T08:18:13;96671.59;;;11.91
57468;BMP280;43311;51.196;7.518;2023-08-07T08:20:38;96692.38;;;12.01
57468;BMP280;43311;51.196;7.518;2023-08-07T08:23:04;96687.44;;;11.87
57468;BMP280;43311;51.196;7.518;2023-08-07T08:25:30;96697.63;;;12.01
57468;BMP280;43311;51.196;7.518;2023-08-07T08:27:56;96680.53;;;11.93
57468;BMP280;43311;51.196;7.518;2023-08-07T08:30:21;96685.00;;;11.96
57468;BMP280;43311;51.196;7.518;2023-08-07T08:32:47;96686.47;;;11.97
57468;BMP280;43311;51.196;7.518;2023-08-07T08:35:13;96669.31;;;11.93
57468;BMP280;43311;51.196;7.518;2023-08-07T08:37:38;96689.91;;;12.10
57468;BMP280;43311;51.196;7.518;2023-08-07T08:40:04;96678.25;;;11.95
57468;BMP280;43311;51.196;7.518;2023-08-07T08:42:31;96708.38;;;12.07
57468;BMP280;43311;51.196;7.518;2023-08-07T08:44:58;96721.19;;;12.21
57468;BMP280;43311;51.196;7.518;2023-08-07T08:47:28;96705.31;;;12.24
57468;BMP280;43311;51.196;7.518;2023-08-07T08:50:08;96705.41;;;12.21
57468;BMP280;43311;51.196;7.518;2023-08-07T08:52:36;96724.31;;;12.16
57468;BMP280;43311;51.196;7.518;2023-08-07T08:55:02;96700.00;;;12.12
57468;BMP280;43311;51.196;7.518;2023-08-07T08:57:29;96737.53;;;12.28
57468;BMP280;43311;51.196;7.518;2023-08-07T08:59:56;96721.28;;;12.17
57468;BMP280;43311;51.196;7.518;2023-08-07T09:02:22;96743.34;;;12.35
57468;BMP280;43311;51.196;7.518;2023-08-07T09:04:47;96726.19;;;12.31
57468;BMP280;43311;51.196;7.518;2023-08-07T09:07:14;96744.41;;;12.38
57468;BMP280;43311;51.196;7.518;2023-08-07T09:09:41;96746.22;;;12.41
57468;BMP280;43311;51.196;7.518;2023-08-07T09:12:13;96755.25;;;12.40
57468;BMP280;43311;51.196;7.518;2023-08-07T09:14:41;96749.16;;;12.43
57468;BMP280;43311;51.196;7.518;2023-08-07T09:17:07;96757.47;;;12.41
57468;BMP280;43311;51.196;7.518;2023-08-07T09:19:33;96751.19;;;12.51
57468;BMP280;43311;51.196;7.518;2023-08-07T09:21:58;96764.69;;;12.53
57468;BMP280;43311;51.196;7.518;2023-08-07T09:24:24;96752.25;;;12.54
57468;BMP280;43311;51.196;7.518;2023-08-07T09:26:51;96754.75;;;12.45
57468;BMP280;43311;51.196;7.518;2023-08-07T09:29:18;96759.50;;;12.50
57468;BMP280;43311;51.196;7.518;2023-08-07T09:31:44;96762.84;;;12.66
57468;BMP280;43311;51.196;7.518;2023-08-07T09:34:12;96780.34;;;12.89
57468;BMP280;43311;51.196;7.518;2023-08-07T09:36:39;96768.16;;;12.95
57468;BMP280;43311;51.196;7.518;2023-08-07T09:39:06;96784.47;;;13.30
57468;BMP280;43311;51.196;7.518;2023-08-07T09:41:31;96780.50;;;13.38
57468;BMP280;43311;51.196;7.518;2023-08-07T09:43:57;96772.44;;;13.29
57468;BMP280;43311;51.196;7.518;2023-08-07T09:46:25;96773.41;;;13.23
57468;BMP280;43311;51.196;7.518;2023-08-07T09:48:50;96762.34;;;12.87
57468;BMP280;43311;51.196;7.518;2023-08-07T09:51:16;96794.88;;;12.93
57468;BMP280;43311;51.196;7.518;2023-08-07T09:53:41;96794.16;;;12.93
57468;BMP280;43311;51.196;7.518;2023-08-07T09:56:07;96795.13;;;12.98
57468;BMP280;43311;51.196;7.518;2023-08-07T09:58:33;96800.59;;;13.04
57468;BMP280;43311;51.196;7.518;2023-08-07T10:01:08;96807.72;;;13.19
57468;BMP280;43311;51.196;7.518;2023-08-07T10:03:34;96812.97;;;13.19
57468;BMP280;43311;51.196;7.518;2023-08-07T10:06:00;96806.41;;;13.11
57468;BMP280;43311;51.196;7.518;2023-08-07T10:08:26;96821.16;;;13.37
57468;BMP280;43311;51.196;7.518;2023-08-07T10:10:53;96820.69;;;13.79
57468;BMP280;43311;51.196;7.518;2023-08-07T10:13:18;96807.09;;;13.81
57468;BMP280;43311;51.196;7.518;2023-08-07T10:15:45;96785.28;;;13.80
57468;BMP280;43311;51.196;7.518;2023-08-07T10:18:31;96778.09;;;13.68
57468;BMP280;43311;51.196;7.518;2023-08-07T10:21:44;96776.47;;;13.46
57468;BMP280;43311;51.196;7.518;2023-08-07T10:24:16;96781.13;;;13.42
57468;BMP280;43311;51.196;7.518;2023-08-07T10:26:44;96807.56;;;13.51
57468;BMP280;43311;51.196;7.518;2023-08-07T10:29:13;96828.22;;;13.53
57468;BMP280;43311;51.196;7.518;2023-08-07T10:31:40;96824.97;;;13.49
57468;BMP280;43311;51.196;7.518;2023-08-07T10:34:08;96831.03;;;13.33
57468;BMP280;43311;51.196;7.518;2023-08-07T10:36:34;96847.59;;;13.34
57468;BMP280;43311;51.196;7.518;2023-08-07T10:39:08;96841.72;;;13.55
57468;BMP280;43311;51.196;7.518;2023-08-07T10:41:42;96832.13;;;13.48
57468;BMP280;43311;51.196;7.518;2023-08-07T10:44:24;96855.88;;;13.73
57468;BMP280;43311;51.196;7.518;2023-08-07T10:46:52;96856.16;;;13.50
57468;BMP280;43311;51.196;7.518;2023-08-07T10:49:31;96855.31;;;13.41
57468;BMP280;43311;51.196;7.518;2023-08-07T10:51:58;96855.31;;;13.41
57468;BMP280;43311;51.196;7.518;2023-08-07T10:54:24;96848.22;;;13.38
57468;BMP280;43311;51.196;7.518;2023-08-07T10:56:53;96840.66;;;13.52
57468;BMP280;43311;51.196;7.518;2023-08-07T10:59:20;96855.53;;;13.59
57468;BMP280;43311;51.196;7.518;2023-08-07T11:01:50;96848.25;;;13.50
57468;BMP280;43311;51.196;7.518;2023-08-07T11:04:17;96859.78;;;13.68
57468;BMP280;43311;51.196;7.518;2023-08-07T11:06:46;96854.00;;;13.86
57468;BMP280;43311;51.196;7.518;2023-08-07T11:09:16;96862.06;;;13.95
57468;BMP280;43311;51.196;7.518;2023-08-07T11:11:46;96823.53;;;13.60
57468;BMP280;43311;51.196;7.518;2023-08-07T11:14:17;96825.72;;;13.49
57468;BMP280;43311;51.196;7.518;2023-08-07T11:16:49;96827.16;;;13.50
57468;BMP280;43311;51.196;7.518;2023-08-07T11:19:18;96868.25;;;13.88
57468;BMP280;43311;51.196;7.518;2023-08-07T11:21:45;96860.34;;;13.88
57468;BMP280;43311;51.196;7.518;2023-08-07T11:24:13;96829.03;;;13.78
57468;BMP280;43311;51.196;7.518;2023-08-07T11:26:39;96846.06;;;14.14
57468;BMP280;43311;51.196;7.518;2023-08-07T11:29:08;96858.91;;;14.37
57468;BMP280;43311;51.196;7.518;2023-08-07T11:31:34;96853.22;;;14.38
57468;BMP280;43311;51.196;7.518;2023-08-07T11:34:00;96863.88;;;14.23
57468;BMP280;43311;51.196;7.518;2023-08-07T11:36:28;96836.72;;;13.85
57468;BMP280;43311;51.196;7.518;2023-08-07T11:39:02;96848.94;;;13.79
57468;BMP280;43311;51.196;7.518;2023-08-07T11:41:31;96835.03;;;13.66
57468;BMP280;43311;51.196;7.518;2023-08-07T11:44:20;96843.75;;;13.63
57468;BMP280;43311;51.196;7.518;2023-08-07T11:47:10;96866.94;;;13.68
57468;BMP280;43311;51.196;7.518;2023-08-07T11:49:36;96867.09;;;13.77
57468;BMP280;43311;51.196;7.518;2023-08-07T11:52:02;96869.03;;;13.61
57468;BMP280;43311;51.196;7.518;2023-08-07T11:54:28;96876.69;;;13.43
57468;BMP280;43311;51.196;7.518;2023-08-07T11:56:53;96901.34;;;13.49
57468;BMP280;43311;51.196;7.518;2023-08-07T11:59:19;96890.09;;;13.48
57468;BMP280;43311;51.196;7.518;2023-08-07T12:01:45;96880.00;;;13.59
57468;BMP280;43311;51.196;7.518;2023-08-07T12:04:11;96868.34;;;13.72
57468;BMP280;43311;51.196;7.518;2023-08-07T12:06:37;96858.84;;;13.87
57468;BMP280;43311;51.196;7.518;2023-08-07T12:09:07;96862.25;;;14.50
57468;BMP280;43311;51.196;7.518;2023-08-07T12:11:38;96843.47;;;14.94
57468;BMP280;43311;51.196;7.518;2023-08-07T12:14:03;96819.63;;;15.19
57468;BMP280;43311;51.196;7.518;2023-08-07T12:16:32;96839.28;;;15.39
57468;BMP280;43311;51.196;7.518;2023-08-07T12:18:58;96845.00;;;15.80
57468;BMP280;43311;51.196;7.518;2023-08-07T12:21:26;96829.06;;;15.72
57468;BMP280;43311;51.196;7.518;2023-08-07T12:23:56;96834.69;;;15.31
57468;BMP280;43311;51.196;7.518;2023-08-07T12:26:23;96820.69;;;15.21
57468;BMP280;43311;51.196;7.518;2023-08-07T12:28:52;96827.63;;;14.94
57468;BMP280;43311;51.196;7.518;2023-08-07T12:31:23;96837.84;;;14.71
57468;BMP280;43311;51.196;7.518;2023-08-07T12:34:08;96882.91;;;14.76
57468;BMP280;43311;51.196;7.518;2023-08-07T12:36:43;96886.88;;;14.47
57468;BMP280;43311;51.196;7.518;2023-08-07T12:39:09;96900.81;;;14.23
57468;BMP280;43311;51.196;7.518;2023-08-07T12:41:34;96909.06;;;13.96
57468;BMP280;43311;51.196;7.518;2023-08-07T12:44:00;96889.94;;;13.80
57468;BMP280;43311;51.196;7.518;2023-08-07T12:46:29;96891.53;;;13.77
57468;BMP280;43311;51.196;7.518;2023-08-07T12:48:55;96895.56;;;14.07
57468;BMP280;43311;51.196;7.518;2023-08-07T12:51:21;96867.03;;;14.42
57468;BMP280;43311;51.196;7.518;2023-08-07T12:53:46;96870.88;;;14.88
57468;BMP280;43311;51.196;7.518;2023-08-07T12:56:12;96876.81;;;15.13
57468;BMP280;43311;51.196;7.518;2023-08-07T12:58:38;96870.66;;;15.16
57468;BMP280;43311;51.196;7.518;2023-08-07T13:01:04;96899.47;;;15.35
57468;BMP280;43311;51.196;7.518;2023-08-07T13:03:29;96886.84;;;15.18
57468;BMP280;43311;51.196;7.518;2023-08-07T13:05:55;96876.16;;;14.75
57468;BMP280;43311;51.196;7.518;2023-08-07T13:08:21;96898.97;;;14.69
57468;BMP280;43311;51.196;7.518;2023-08-07T13:10:46;96895.72;;;14.65
57468;BMP280;43311;51.196;7.518;2023-08-07T13:13:12;96868.81;;;14.58
57468;BMP280;43311;51.196;7.518;2023-08-07T13:15:41;96857.31;;;14.98
57468;BMP280;43311;51.196;7.518;2023-08-07T13:18:07;96891.78;;;15.50
57468;BMP280;43311;51.196;7.518;2023-08-07T13:20:35;96879.75;;;15.49
57468;BMP280;43311;51.196;7.518;2023-08-07T13:23:02;96856.44;;;15.56
57468;BMP280;43311;51.196;7.518;2023-08-07T13:25:31;96878.09;;;15.64
57468;BMP280;43311;51.196;7.518;2023-08-07T13:27:58;96880.78;;;15.73
57468;BMP280;43311;51.196;7.518;2023-08-07T13:30:30;96866.91;;;15.38
57468;BMP280;43311;51.196;7.518;2023-08-07T13:32:56;96901.94;;;15.51
57468;BMP280;43311;51.196;7.518;2023-08-07T13:35:22;96872.19;;;15.38
57468;BMP280;43311;51.196;7.518;2023-08-07T13:37:47;96890.97;;;15.40
57468;BMP280;43311;51.196;7.518;2023-08-07T13:40:13;96900.22;;;15.36
57468;BMP280;43311;51.196;7.518;2023-08-07T13:42:39;96887.78;;;15.24
57468;BMP280;43311;51.196;7.518;2023-08-07T13:45:05;96881.06;;;15.44
57468;BMP280;43311;51.196;7.518;2023-08-07T13:47:31;96872.44;;;15.31
57468;BMP280;43311;51.196;7.518;2023-08-07T13:49:57;96895.31;;;15.47
57468;BMP280;43311;51.196;7.518;2023-08-07T13:52:23;96896.09;;;15.35
57468;BMP280;43311;51.196;7.518;2023-08-07T13:54:50;96895.88;;;15.29
57468;BMP280;43311;51.196;7.518;2023-08-07T13:57:16;96875.13;;;15.40
57468;BMP280;43311;51.196;7.518;2023-08-07T13:59:42;96898.88;;;16.04
57468;BMP280;43311;51.196;7.518;2023-08-07T14:02:08;96912.69;;;16.30
57468;BMP280;43311;51.196;7.518;2023-08-07T14:04:34;96935.47;;;16.27
57468;BMP280;43311;51.196;7.518;2023-08-07T14:06:59;96892.59;;;15.80
57468;BMP280;43311;51.196;7.518;2023-08-07T14:09:25;96899.41;;;15.69
57468;BMP280;43311;51.196;7.518;2023-08-07T14:11:51;96931.41;;;16.14
57468;BMP280;43311;51.196;7.518;2023-08-07T14:14:16;96903.91;;;16.11